Time;durP1;ratioP1;P1;durP2;ratioP2;P2;SDS_P1;SDS_P2;PMS_P1;PMS_P2;Temp;Humidity;BMP_temperature;BMP_pressure;BME280_temperature;BME280_humidity;BME280_pressure;Samples;Min_cycle;Max_cycle;Signal;HPM_P1;HPM_P2
2024/02/10 07:31:03;;;;;;;47.20;22.70;;;;;;;3.23;100.00;99159.13;108117;1275;22276;-45
2024/02/10 07:33:30;;;;;;;44.70;21.50;;;;;;;3.24;100.00;99166.20;108673;1259;22534;-46
2024/02/10 07:36:00;;;;;;;45.80;22.90;;;;;;;3.25;100.00;99169.66;109661;1276;22740;-45
2024/02/10 07:38:28;;;;;;;45.50;24.10;;;;;;;3.28;100.00;99162.64;109585;1276;22331;-50
2024/02/10 07:40:55;;;;;;;45.40;22.80;;;;;;;3.31;100.00;99162.67;109872;1276;22515;-45
2024/02/10 07:43:23;;;;;;;39.20;21.70;;;;;;;3.32;100.00;99165.45;108568;1263;22566;-51
2024/02/10 07:45:52;;;;;;;44.60;22.40;;;;;;;3.32;100.00;99164.77;108431;1276;22538;-52
2024/02/10 07:48:21;;;;;;;40.50;21.20;;;;;;;3.33;100.00;99166.31;107880;1276;22216;-45
2024/02/10 07:50:49;;;;;;;42.60;21.20;;;;;;;3.33;100.00;99168.55;107321;1263;22540;-46
2024/02/10 07:53:17;;;;;;;49.70;23.00;;;;;;;3.33;100.00;99172.17;107242;1270;26777;-46
2024/02/10 07:55:46;;;;;;;45.50;24.40;;;;;;;3.34;100.00;99173.39;106853;1276;24214;-50
2024/02/10 07:58:15;;;;;;;43.80;24.00;;;;;;;3.38;100.00;99177.05;107214;1276;22681;-51
2024/02/10 08:00:44;;;;;;;40.30;21.70;;;;;;;3.44;100.00;99178.86;107369;1256;25112;-45
2024/02/10 08:03:12;;;;;;;53.10;26.00;;;;;;;3.46;100.00;99184.90;107298;1272;25220;-52
2024/02/10 08:05:42;;;;;;;46.10;23.20;;;;;;;3.50;100.00;99185.80;107768;1270;22648;-47
2024/02/10 08:08:10;;;;;;;45.80;23.50;;;;;;;3.56;100.00;99181.91;107417;1261;22531;-46
2024/02/10 08:10:38;;;;;;;44.00;22.10;;;;;;;3.61;100.00;99179.38;107040;1276;22530;-46
2024/02/10 08:13:06;;;;;;;40.40;21.80;;;;;;;3.65;100.00;99172.84;107188;1270;24323;-45
2024/02/10 08:15:33;;;;;;;43.10;22.30;;;;;;;3.69;100.00;99179.10;107142;1276;22533;-44
2024/02/10 08:18:05;;;;;;;42.50;21.60;;;;;;;3.74;100.00;99177.09;107156;1267;24302;-50
2024/02/10 08:20:32;;;;;;;43.60;22.60;;;;;;;3.76;100.00;99181.08;106974;1270;25227;-50
2024/02/10 08:23:00;;;;;;;42.70;22.80;;;;;;;3.78;100.00;99183.34;107019;1276;22527;-46
2024/02/10 08:25:28;;;;;;;40.10;22.10;;;;;;;3.82;100.00;99185.09;107300;1261;22539;-45
2024/02/10 08:27:56;;;;;;;42.40;23.00;;;;;;;3.84;100.00;99180.98;107488;1273;25548;-47
2024/02/10 08:30:24;;;;;;;40.10;22.60;;;;;;;3.85;100.00;99186.16;107216;1276;22530;-50
2024/02/10 08:32:53;;;;;;;38.80;23.10;;;;;;;3.86;100.00;99187.02;107759;1275;26493;-51
2024/02/10 08:35:24;;;;;;;42.50;22.30;;;;;;;3.88;100.00;99188.43;107631;1275;25456;-51
2024/02/10 08:37:52;;;;;;;46.70;22.90;;;;;;;3.92;100.00;99190.20;107330;1270;22507;-51
2024/02/10 08:40:20;;;;;;;44.80;22.00;;;;;;;3.97;100.00;99190.41;107354;1275;25403;-45
2024/02/10 08:42:50;;;;;;;39.90;20.10;;;;;;;4.02;100.00;99188.21;107240;1275;23116;-45
2024/02/10 08:45:18;;;;;;;;;;;;;;;4.06;100.00;99191.87;106927;1275;22497;-45
2024/02/10 08:47:45;;;;;;;;;;;;;;;4.04;100.00;99183.56;107529;1258;22528;-46
2024/02/10 08:50:13;;;;;;;;;;;;;;;4.05;100.00;99177.35;107126;1275;22507;-53
2024/02/10 08:52:45;;;;;;;;;;;;;;;4.09;100.00;99181.02;107451;1275;22515;-52
2024/02/10 08:55:14;;;;;;;;;;;;;;;4.11;100.00;99181.73;107491;1275;25213;-45
2024/02/10 08:57:43;;;;;;;;;;;;;;;4.14;100.00;99181.93;107128;1276;23710;-51
2024/02/10 09:00:11;;;;;;;;;;;;;;;4.17;100.00;99182.47;107559;1275;22510;-51
2024/02/10 09:02:39;;;;;;;;;;;;;;;4.20;100.00;99181.98;107662;1269;22513;-46
2024/02/10 09:05:08;;;;;;;;;;;;;;;4.22;100.00;99181.98;109411;1275;22608;-51
2024/02/10 09:07:36;;;;;;;;;;;;;;;4.26;100.00;99175.64;109901;1275;22491;-51
2024/02/10 09:10:04;;;;;;;;;;;;;;;4.30;100.00;99177.05;108182;1275;23263;-50
2024/02/10 09:12:31;;;;;;;;;;;;;;;4.34;100.00;99181.73;108624;1275;22550;-46
2024/02/10 09:14:59;;;;;;;;;;;;;;;4.41;100.00;99176.27;107277;1276;26576;-52
2024/02/10 09:17:26;;;;;;;;;;;;;;;4.43;100.00;99171.27;107511;1275;22533;-48
2024/02/10 09:19:54;;;;;;;;;;;;;;;4.43;100.00;99167.12;107753;1275;24287;-51
2024/02/10 09:22:22;;;;;;;;;;;;;;;4.43;100.00;99167.48;107223;1259;24225;-50
2024/02/10 09:24:51;;;;;;;;;;;;;;;4.45;100.00;99173.52;107122;1275;22517;-44
2024/02/10 09:27:21;;;;;;;;;;;;;;;4.50;100.00;99179.09;107565;1275;22519;-50
2024/02/10 09:29:49;;;;;;;;;;;;;;;4.57;100.00;99181.89;107541;1275;22502;-46
2024/02/10 09:32:16;;;;;;;;;;;;;;;4.60;100.00;99180.20;107242;1275;22525;-50
2024/02/10 09:34:46;;;;;;;;;;;;;;;4.61;100.00;99179.33;107080;1275;24212;-47
2024/02/10 09:37:17;;;;;;;;;;;;;;;4.62;100.00;99178.11;107456;1271;22521;-45
2024/02/10 09:39:46;;;;;;;;;;;;;;;4.65;100.00;99176.41;107552;1273;23925;-51
2024/02/10 09:42:23;;;;;;;;;;;;;;;4.66;100.00;99178.16;107457;1273;22533;-46
2024/02/10 09:44:50;;;;;;;;;;;;;;;4.62;100.00;99183.14;107405;1259;23874;-46
2024/02/10 09:47:19;;;;;;;;;;;;;;;4.58;100.00;99181.39;107365;1276;22519;-45
2024/02/10 09:49:47;;;;;;;;;;;;;;;4.58;100.00;99178.25;107179;1275;26025;-51
2024/02/10 09:52:15;;;;;;;;;;;;;;;4.55;100.00;99170.30;107104;1276;22456;-53
2024/02/10 09:54:42;;;;;;;;;;;;;;;4.58;100.00;99173.95;106997;1275;22520;-46
2024/02/10 09:57:11;;;;;;;;;;;;;;;4.60;100.00;99175.52;107523;1276;25574;-49
2024/02/10 09:59:42;;;;;;;;;;;;;;;4.65;100.00;99173.48;107462;1276;22507;-50
2024/02/10 10:02:12;;;;;;;;;;;;;;;4.69;100.00;99169.86;107374;1258;25259;-45
2024/02/10 10:04:40;;;;;;;;;;;;;;;4.70;100.00;99172.48;107685;1276;24029;-50
2024/02/10 10:07:10;;;;;;;;;;;;;;;4.72;100.00;99171.45;110355;1275;22436;-52
2024/02/10 10:09:38;;;;;;;;;;;;;;;4.75;100.00;99169.39;109740;1259;22485;-52
2024/02/10 10:12:11;;;;;;;;;;;;;;;4.77;100.00;99168.38;108815;1259;22485;-51
2024/02/10 10:14:39;;;;;;;;;;;;;;;4.79;100.00;99167.68;108027;1275;23032;-45
2024/02/10 10:17:13;;;;;;;;;;;;;;;4.82;100.00;99161.15;106983;1276;25401;-50
2024/02/10 10:19:43;;;;;;;;;;;;;;;4.82;100.00;99156.99;107772;1272;22546;-45
2024/02/10 10:22:11;;;;;;;;;;;;;;;4.78;100.00;99155.06;108604;1276;22504;-44
2024/02/10 10:24:38;;;;;;;;;;;;;;;4.77;100.00;99158.35;110291;1273;22410;-50
2024/02/10 10:27:05;;;;;;;;;;;;;;;4.79;100.00;99155.94;110199;1272;22455;-45
2024/02/10 10:29:33;;;;;;;;;;;;;;;4.83;100.00;99158.55;109873;1275;22587;-46
2024/02/10 10:32:02;;;;;;;;;;;;;;;4.88;100.00;99158.59;110216;1276;23233;-46
2024/02/10 10:34:30;;;;;;;;;;;;;;;4.88;100.00;99153.75;110343;1270;23084;-49
2024/02/10 10:36:57;;;;;;;;;;;;;;;4.88;100.00;99149.94;110331;1256;22494;-47
2024/02/10 10:39:30;;;;;;;;;;;;;;;4.88;100.00;99150.29;110274;1269;22460;-51
2024/02/10 10:41:58;;;;;;;;;;;;;;;4.91;100.00;99151.66;107540;1276;25478;-51
2024/02/10 10:44:26;;;;;;;;;;;;;;;4.93;100.00;99152.20;107353;1268;22522;-51
2024/02/10 10:46:53;;;;;;;;;;;;;;;4.94;100.00;99149.11;107382;1256;25312;-46
2024/02/10 10:49:21;;;;;;;;;;;;;;;4.95;100.00;99146.34;107991;1276;25401;-52
2024/02/10 10:51:48;;;;;;;;;;;;;;;4.95;100.00;99142.89;109083;1270;22487;-44
2024/02/10 10:54:16;;;;;;;;;;;;;;;4.96;100.00;99138.73;109161;1269;22525;-49
2024/02/10 10:56:44;;;;;;;;;;;;;;;4.99;100.00;99134.08;107152;1268;24097;-47
2024/02/10 10:59:11;;;;;;;;;;;;;;;4.96;100.00;99137.00;109090;1275;22532;-46
2024/02/10 11:01:39;;;;;;;;;;;;;;;4.94;100.00;99135.80;107492;1271;22804;-51
2024/02/10 11:04:10;;;;;;;;;;;;;;;4.94;100.00;99132.35;107168;1275;22504;-44
2024/02/10 11:06:42;;;;;;;;;;;;;;;4.95;100.00;99128.36;108887;1267;23306;-47
2024/02/10 11:09:14;;;;;;;;;;;;;;;4.95;100.00;99130.27;110233;1254;23287;-50
2024/02/10 11:11:44;;;;;;;;;;;;;;;4.97;100.00;99126.63;109745;1268;23412;-50
2024/02/10 11:14:11;;;;;;;;;;;;;;;4.98;100.00;99127.34;108691;1275;22507;-51
2024/02/10 11:16:43;;;;;;;;;;;;;;;5.03;100.00;99130.28;108045;1276;23801;-48
2024/02/10 11:19:14;;;;;;;;;;;;;;;5.06;100.00;99132.21;106983;1275;22511;-52
2024/02/10 11:21:46;;;;;;;;;;;;;;;5.06;100.00;99126.34;107581;1276;24203;-51
2024/02/10 11:24:19;;;;;;;;;;;;;;;5.07;100.00;99123.05;109179;1275;22520;-51
2024/02/10 11:26:47;;;;;;;;;;;;;;;5.08;100.00;99120.80;108242;1256;22556;-45
2024/02/10 11:29:18;;;;;;;;;;;;;;;5.12;100.00;99118.06;108525;1269;22519;-45
2024/02/10 11:31:46;;;;;;;;;;;;;;;5.13;100.00;99114.26;110381;1275;22431;-51
2024/02/10 11:34:16;;;;;;;;;;;;;;;5.15;100.00;99113.55;108825;1269;22574;-45
2024/02/10 11:36:53;;;;;;;;;;;;;;;5.19;100.00;99118.08;108102;1269;24359;-45
2024/02/10 11:39:22;;;;;;;;;;;;;;;5.24;100.00;99122.59;107724;1275;23340;-46
2024/02/10 11:42:10;;;;;;;;;;;;;;;5.29;100.00;99125.20;107682;1275;22515;-46
2024/02/10 11:44:38;;;;;;;;;;;;;;;5.33;100.00;99131.27;107468;1271;22535;-52
2024/02/10 11:47:08;;;;;;;;;;;;;;;5.33;100.00;99134.02;107092;1259;22522;-51
2024/02/10 11:49:38;;;;;;;;;;;;;;;5.32;100.00;99132.45;107993;1276;22547;-51
2024/02/10 11:52:07;;;;;;;;;;;;;;;5.31;100.00;99129.00;107446;1276;22537;-50
2024/02/10 11:54:36;;;;;;;;;;;;;;;5.26;100.00;99129.67;107372;1275;22527;-45
2024/02/10 11:57:04;;;;;;;;;;;;;;;5.22;100.00;99125.00;107602;1267;24193;-45
2024/02/10 11:59:33;;;;;;;;;;;;;;;5.17;100.00;99120.67;107508;1276;22539;-46
2024/02/10 12:02:01;;;;;;;;;;;;;;;5.12;100.00;99116.33;108807;1268;22519;-45
2024/02/10 12:04:32;;;;;;;;;;;;;;;5.12;100.00;99111.66;107699;1275;22503;-46
2024/02/10 12:07:00;;;;;;;;;;;;;;;5.16;100.00;99105.45;107230;1256;25824;-45
2024/02/10 12:09:29;;;;;;;;;;;;;;;5.21;100.00;99101.83;108052;1259;22587;-46
2024/02/10 12:12:00;;;;;;;;;;;;;;;5.22;100.00;99096.83;107787;1276;25274;-47
2024/02/10 12:14:30;;;;;;;;;;;;;;;5.23;100.00;99093.54;109029;1269;22531;-45
2024/02/10 12:17:07;;;;;;;;;;;;;;;5.27;100.00;99084.21;108365;1276;22496;-46
2024/02/10 12:19:37;;;;;;;;;;;;;;;5.32;100.00;99079.89;107243;1273;25305;-45
2024/02/10 12:22:08;;;;;;;;;;;;;;;5.33;100.00;99079.22;107723;1275;22525;-46
2024/02/10 12:24:36;;;;;;;;;;;;;;;5.33;100.00;99085.80;107227;1275;22507;-45
2024/02/10 12:27:04;;;;;;;;;;;;;;;5.36;100.00;99086.66;107090;1275;24383;-48
2024/02/10 12:29:31;;;;;;;;;;;;;;;5.36;100.00;99090.98;107155;1276;22571;-52
2024/02/10 12:31:59;;;;;;;;;;;;;;;5.37;100.00;99093.40;107878;1269;23874;-51
2024/02/10 12:34:27;;;;;;;;;;;;;;;5.37;100.00;99094.61;107200;1255;23167;-53
2024/02/10 12:36:55;;;;;;;;;;;;;;;5.33;100.00;99095.80;107396;1275;24159;-51
2024/02/10 12:39:24;;;;;;;;;;;;;;;5.30;100.00;99098.23;107403;1268;25381;-53
2024/02/10 12:41:53;;;;;;;;;;;;;;;5.26;100.00;99107.71;107070;1276;22517;-45
2024/02/10 12:44:20;;;;;;;;;;;;;;;5.25;100.00;99117.74;107060;1258;25188;-46
2024/02/10 12:46:48;;;;;;;;;;;;;;;5.23;100.00;99119.64;107229;1276;25182;-46
2024/02/10 12:49:16;;;;;;;;;;;;;;;5.22;100.00;99115.14;107478;1269;24180;-45
2024/02/10 12:51:44;;;;;;;;;;;;;;;5.20;100.00;99119.45;107636;1266;25329;-52
2024/02/10 12:54:13;;;;;;;;;;;;;;;5.20;100.00;99119.27;107001;1276;23203;-52
2024/02/10 12:56:42;;;;;;;;;;;;;;;5.20;100.00;99117.03;107308;1275;24196;-52
2024/02/10 12:59:10;;;;;;;;;;;;;;;5.20;100.00;99124.64;107281;1276;22537;-47
2024/02/10 13:01:38;;;;;;;;;;;;;;;5.19;100.00;99127.59;107258;1275;22495;-46
2024/02/10 13:04:06;;;;;;;;;;;;;;;5.16;100.00;99131.55;107141;1275;25444;-46
2024/02/10 13:06:33;;;;;;;;;;;;;;;5.16;100.00;99131.90;106865;1276;24031;-47
2024/02/10 13:09:02;;;;;;;;;;;;;;;5.16;100.00;99132.09;107809;1276;25306;-46
2024/02/10 13:11:30;;;;;;;;;;;;;;;5.17;100.00;99129.84;107034;1269;25198;-47
2024/02/10 13:13:57;;;;;;;;;;;;;;;5.17;100.00;99132.95;107359;1276;22516;-45
2024/02/10 13:16:26;;;;;;;;;;;;;;;5.19;100.00;99133.81;107870;1269;24177;-46
2024/02/10 13:18:53;;;;;;;;;;;;;;;5.21;100.00;99131.21;107276;1276;26480;-45
2024/02/10 13:21:21;;;;;;;;;;;;;;;5.23;100.00;99128.12;107593;1269;22525;-48
2024/02/10 13:23:49;;;;;;;;;;;;;;;5.25;100.00;99125.88;107147;1275;22510;-46
